Airfield :
LOGIN :

Register | Disclaimer

   EN    FR    IT 

 










Legend :    VFR   Marginal VFR   IFR   Intensive IFR   Very Intensive IFR
Visi :
Ceiling :
>= 8 km
>= 3000ft
5 to 8 km
1000 to 3000 ft
1500m to 5 km
500 to 1000 ft
800 to 1500m
200 to 500 ft
< 800m
< 200 ft
Symbols :   Thunderstorms  Fog  Heavy snow  Heavy precipitations  Wind > 20 kt
SIGMETs :     Misc.  Thunderstorms  Icing  Turbulence  Mountain Waves  Volcanic Ashes






- Airport Elevation : 481 ft
- IATA code : DNK


UKDD - Dnipropetrovs'k

CURRENT METAR :
  • 141330Z 09006MPS CAVOK 10/01 Q1022 R08/090070 TEMPO 10009G14MPS

EXPIRED METARs :
  • 141230Z 10008MPS CAVOK 11/02 Q1022 R08/090070 TEMPO 10009G14MPS
  • 141200Z 09008MPS CAVOK 12/02 Q1022 R08/090070 TEMPO 10009G14MPS
  • 141130Z 10010MPS CAVOK 11/02 Q1022 R08/090070 NOSIG
  • 141100Z 11009MPS CAVOK 12/02 Q1022 R08/090070 NOSIG

TAF TAF UKDD
Valid from the 14 at 12:00 until the 15 at 12:00 UTC


141101Z 1412/1512 11007MPS 9999 SCT020 TX11/1412Z TN04/1504Z
TEMPO 1412/1418 10009G14MPS



MET'MAP, your aeronautical weather chart ! - Copyright ORBIFLY December 2007 - Disclaimer

ORBIFLY MET'MAP TEAM :

Programming & Development : Alexandra Zaïnal
Concept & Development : Baudouin d'Aumeries
Co-Development & Prog : Marc-Olivier Méhu
Technical & hardware support : Manuel Goepfert

Contact : metmap@orbifly.com




SOURCES & CREDITS :

   NOAA